Airfield :
LOGIN :

Register | Disclaimer

   EN    FR    IT 

 










Legend :    VFR   Marginal VFR   IFR   Intensive IFR   Very Intensive IFR
Visi :
Ceiling :
>= 8 km
>= 3000ft
5 to 8 km
1000 to 3000 ft
1500m to 5 km
500 to 1000 ft
800 to 1500m
200 to 500 ft
< 800m
< 200 ft
Symbols :   Thunderstorms  Fog  Heavy snow  Heavy precipitations  Wind > 20 kt
SIGMETs :     Misc.  Thunderstorms  Icing  Turbulence  Mountain Waves  Volcanic Ashes







- Airport Elevation : 479 ft
- IATA code : DOL
- Download approach charts


LFRG - Deauville

CURRENT METAR :
  • 200530Z AUTO 21002KT CAVOK 08/07 Q1022 NOSIG

EXPIRED METARs :
  • 200500Z AUTO 22004KT CAVOK 08/07 Q1022
  • 200430Z AUTO 22004KT CAVOK 07/06 Q1022
  • 200400Z AUTO 21004KT CAVOK 07/06 Q1022
  • 200330Z AUTO 22004KT CAVOK 07/06 Q1022
  • 200300Z AUTO 22005KT CAVOK 07/06 Q1023

TAF TAF LFRG
Valid from the 20 at 06:00 until the 20 at 15:00 UTC


200500Z 2006/2015 14005KT 9999 SCT040
ATIS : +33 2 31 65 65 36
No reported NOTAMs for that airfield.



MET'MAP, your aeronautical weather chart ! - Copyright ORBIFLY December 2007 - Disclaimer

ORBIFLY MET'MAP TEAM :

Programming & Development : Alexandra Zaïnal
Concept & Development : Baudouin d'Aumeries
Co-Development & Prog : Marc-Olivier Méhu
Technical & hardware support : Manuel Goepfert

Contact : metmap@orbifly.com




SOURCES & CREDITS :

   NOAA